createdAt,value
2018-01-04T00:00:37.946Z,0
2018-01-04T00:01:19.062Z,0
2018-01-04T00:01:59.622Z,0
2018-01-04T00:02:40.067Z,0
2018-01-04T00:03:20.731Z,0
2018-01-04T00:04:01.850Z,0
2018-01-04T00:04:42.204Z,0
2018-01-04T00:05:23.708Z,0
2018-01-04T00:06:03.745Z,0
2018-01-04T00:06:44.619Z,0
2018-01-04T00:07:25.464Z,0
2018-01-04T00:08:06.264Z,0
2018-01-04T00:08:46.699Z,0
2018-01-04T00:09:27.382Z,0
2018-01-04T00:10:07.949Z,0
2018-01-04T00:10:48.558Z,0
2018-01-04T00:11:29.144Z,0
2018-01-04T00:12:10.238Z,0
2018-01-04T00:12:50.676Z,0
2018-01-04T00:13:31.033Z,0
2018-01-04T00:14:11.512Z,0
2018-01-04T00:14:52.235Z,0
2018-01-04T00:15:33.021Z,0
2018-01-04T00:16:13.758Z,0
2018-01-04T00:16:54.304Z,0
2018-01-04T00:17:34.808Z,0
2018-01-04T00:18:15.979Z,0
2018-01-04T00:18:56.394Z,0
2018-01-04T00:19:36.913Z,0
2018-01-04T00:20:17.264Z,0
2018-01-04T00:20:57.862Z,0
2018-01-04T00:21:38.662Z,0
2018-01-04T00:22:19.162Z,0
2018-01-04T00:22:59.720Z,0
2018-01-04T00:23:40.400Z,0
2018-01-04T00:24:20.958Z,0
2018-01-04T00:25:02.037Z,0
2018-01-04T00:25:42.313Z,0
2018-01-04T00:26:23.010Z,0
2018-01-04T00:27:03.355Z,0
2018-01-04T00:27:44.165Z,0
2018-01-04T00:28:24.761Z,0
2018-01-04T00:29:05.247Z,0
2018-01-04T00:29:46.322Z,0
2018-01-04T00:30:26.765Z,0
2018-01-04T00:31:07.181Z,0
2018-01-04T00:31:48.078Z,0
2018-01-04T00:32:29.111Z,0
2018-01-04T00:33:09.469Z,0
2018-01-04T00:33:49.804Z,0
2018-01-04T00:34:30.532Z,0
2018-01-04T00:35:11.157Z,0
2018-01-04T00:35:51.577Z,0
2018-01-04T00:36:32.083Z,0
2018-01-04T00:37:12.507Z,0
2018-01-04T00:37:53.034Z,0
2018-01-04T00:38:33.592Z,0
2018-01-04T00:39:14.281Z,0
2018-01-04T00:39:54.715Z,0
2018-01-04T00:40:36.074Z,0
2018-01-04T00:41:16.517Z,0
2018-01-04T00:41:57.177Z,0
2018-01-04T00:44:37.565Z,0
2018-01-04T00:45:17.723Z,0
2018-01-04T00:45:58.187Z,0
2018-01-04T00:46:38.550Z,0
2018-01-04T00:47:19.002Z,0
2018-01-04T00:47:59.722Z,0
2018-01-04T00:48:40.682Z,0
2018-01-04T00:49:20.946Z,0
2018-01-04T00:50:01.485Z,0
2018-01-04T00:50:42.225Z,0
2018-01-04T00:51:22.973Z,0
2018-01-04T00:52:03.403Z,0
2018-01-04T00:52:43.790Z,0
2018-01-04T00:53:24.310Z,0
2018-01-04T00:54:04.770Z,0
2018-01-04T00:54:45.372Z,0
2018-01-04T00:55:26.004Z,0
2018-01-04T00:56:06.741Z,0
2018-01-04T00:56:47.306Z,0
2018-01-04T00:57:28.163Z,0
2018-01-04T00:58:08.506Z,0
2018-01-04T00:58:49.125Z,0
2018-01-04T00:59:29.609Z,0
2018-01-04T01:00:10.315Z,0
2018-01-04T01:00:51.938Z,0
2018-01-04T01:01:32.392Z,0
2018-01-04T01:02:13.036Z,0
2018-01-04T01:02:53.533Z,0
2018-01-04T01:03:33.835Z,0
2018-01-04T01:04:16.482Z,0
2018-01-04T01:04:56.914Z,0
2018-01-04T01:05:37.446Z,0
2018-01-04T01:06:18.248Z,0
2018-01-04T01:06:58.878Z,0
2018-01-04T01:07:39.631Z,0
2018-01-04T01:08:20.494Z,0
2018-01-04T01:09:01.121Z,0
2018-01-04T01:09:41.809Z,0
2018-01-04T01:10:22.184Z,0
2018-01-04T01:11:02.767Z,0
2018-01-04T01:11:43.225Z,0
2018-01-04T01:13:57.874Z,0
2018-01-04T01:14:37.571Z,0
2018-01-04T01:15:18.456Z,0
2018-01-04T01:15:59.122Z,0
2018-01-04T01:16:39.609Z,0
2018-01-04T01:17:20.063Z,0
2018-01-04T01:18:00.703Z,0
2018-01-04T01:18:41.305Z,0
2018-01-04T01:19:21.791Z,0
2018-01-04T01:20:02.260Z,0
2018-01-04T01:22:42.139Z,0
2018-01-04T01:25:16.476Z,0
2018-01-04T01:26:13.135Z,0
2018-01-04T01:27:07.208Z,0
2018-01-04T01:28:02.168Z,0
2018-01-04T01:28:54.415Z,0
2018-01-04T01:29:48.000Z,0
2018-01-04T01:30:43.580Z,0
2018-01-04T01:31:36.334Z,0
2018-01-04T01:34:02.382Z,0
2018-01-04T01:34:43.726Z,0
2018-01-04T01:35:24.986Z,0
2018-01-04T01:36:06.559Z,0
2018-01-04T01:36:47.003Z,0
2018-01-04T01:37:27.861Z,0
2018-01-04T01:38:09.079Z,0
2018-01-04T01:38:49.531Z,0
2018-01-04T01:39:31.364Z,0
2018-01-04T01:40:12.496Z,0
2018-01-04T01:40:53.096Z,0
2018-01-04T01:41:33.760Z,0
2018-01-04T01:42:15.267Z,0
2018-01-04T01:42:56.971Z,0
2018-01-04T01:43:38.049Z,0
2018-01-04T01:44:18.234Z,0
2018-01-04T01:44:58.996Z,0
2018-01-04T01:45:39.604Z,0
2018-01-04T01:46:21.062Z,0
2018-01-04T01:47:02.453Z,0
2018-01-04T01:47:43.977Z,0
2018-01-04T01:48:24.957Z,0
2018-01-04T01:49:06.573Z,0
2018-01-04T01:49:47.113Z,0
2018-01-04T01:50:28.944Z,0
2018-01-04T01:51:09.657Z,0
2018-01-04T01:51:50.998Z,0
2018-01-04T01:52:31.549Z,0
2018-01-04T01:53:13.391Z,0
2018-01-04T01:53:54.310Z,0
2018-01-04T01:54:35.052Z,0
2018-01-04T01:55:15.765Z,0
2018-01-04T01:55:56.913Z,0
2018-01-04T01:56:37.544Z,0
2018-01-04T01:57:18.284Z,0
2018-01-04T01:57:59.160Z,0
2018-01-04T01:58:39.538Z,0
2018-01-04T01:59:20.999Z,0
2018-01-04T02:00:02.232Z,0
2018-01-04T02:00:42.659Z,0
2018-01-04T02:01:23.680Z,0
2018-01-04T02:02:04.111Z,0
2018-01-04T02:02:45.436Z,0
2018-01-04T02:03:26.233Z,0
2018-01-04T02:04:10.950Z,0
2018-01-04T02:04:52.253Z,0
2018-01-04T02:05:33.002Z,0
2018-01-04T02:06:13.397Z,0
2018-01-04T02:06:54.456Z,0
2018-01-04T02:07:35.201Z,0
2018-01-04T02:08:15.932Z,0
2018-01-04T02:08:56.991Z,0
2018-01-04T02:09:37.635Z,0
2018-01-04T02:10:19.040Z,0
2018-01-04T02:11:00.484Z,0
2018-01-04T02:11:42.166Z,0
2018-01-04T02:12:22.767Z,0
2018-01-04T02:13:03.914Z,0
2018-01-04T02:13:47.192Z,0
2018-01-04T02:14:27.922Z,0
2018-01-04T02:15:09.443Z,0
2018-01-04T02:15:49.980Z,0
2018-01-04T02:16:31.538Z,0
2018-01-04T02:17:12.328Z,0
2018-01-04T02:17:52.742Z,0
2018-01-04T02:18:33.291Z,0
2018-01-04T02:19:14.139Z,0
2018-01-04T02:19:54.573Z,0
2018-01-04T02:20:35.333Z,0
2018-01-04T02:21:15.889Z,0
2018-01-04T02:21:56.481Z,0
2018-01-04T02:22:36.962Z,0
2018-01-04T02:23:18.242Z,0
2018-01-04T02:24:00.713Z,0
2018-01-04T02:24:42.704Z,0
2018-01-04T02:25:24.136Z,0
2018-01-04T02:26:04.892Z,0
2018-01-04T02:26:46.249Z,0
2018-01-04T02:27:26.484Z,0
2018-01-04T02:28:07.014Z,0
2018-01-04T02:28:48.121Z,0
2018-01-04T02:29:28.626Z,0
2018-01-04T02:30:09.781Z,0
2018-01-04T02:30:50.262Z,0
2018-01-04T02:31:31.517Z,0
2018-01-04T02:32:12.261Z,0
2018-01-04T02:32:52.382Z,0
2018-01-04T02:33:34.209Z,0
2018-01-04T02:34:14.712Z,0
2018-01-04T02:34:56.126Z,0
2018-01-04T02:35:37.743Z,0
2018-01-04T02:36:18.368Z,0
2018-01-04T02:36:59.510Z,0
2018-01-04T02:37:40.359Z,0
2018-01-04T02:38:21.692Z,0
2018-01-04T02:39:02.778Z,0
2018-01-04T02:39:44.164Z,0
2018-01-04T02:40:24.437Z,0
2018-01-04T02:41:05.274Z,0
2018-01-04T02:41:46.598Z,0
2018-01-04T02:47:47.227Z,0
2018-01-04T02:48:27.787Z,0
2018-01-04T02:49:08.225Z,0
2018-01-04T02:49:48.829Z,0
2018-01-04T02:50:29.316Z,0
2018-01-04T02:51:09.907Z,0
2018-01-04T02:51:50.554Z,0
2018-01-04T02:54:00.140Z,0
2018-01-04T02:54:52.735Z,0
2018-01-04T02:55:47.069Z,0
2018-01-04T02:56:37.212Z,0
2018-01-04T02:57:22.062Z,0
2018-01-04T02:58:02.858Z,0
2018-01-04T02:58:43.217Z,0
2018-01-04T02:59:23.562Z,0
2018-01-04T03:00:04.019Z,0
2018-01-04T03:00:45.337Z,0
2018-01-04T03:01:26.271Z,0
2018-01-04T03:02:06.206Z,0
2018-01-04T03:02:46.951Z,0
2018-01-04T03:03:30.204Z,0
2018-01-04T03:04:09.740Z,0
2018-01-04T03:04:50.339Z,0
2018-01-04T03:05:30.703Z,0
2018-01-04T03:06:11.348Z,0
2018-01-04T03:06:51.758Z,0
2018-01-04T03:07:32.148Z,0
2018-01-04T03:08:13.688Z,0
2018-01-04T03:08:54.301Z,0
2018-01-04T03:09:35.106Z,0
2018-01-04T03:10:16.021Z,0
2018-01-04T03:10:56.319Z,0
2018-01-04T03:11:36.875Z,0
2018-01-04T03:12:17.276Z,0
2018-01-04T03:12:57.788Z,0
2018-01-04T03:13:38.150Z,0
2018-01-04T03:14:18.569Z,0
2018-01-04T03:14:59.282Z,0
2018-01-04T03:15:39.855Z,0
2018-01-04T03:16:20.048Z,0
2018-01-04T03:17:00.542Z,0
2018-01-04T03:17:41.067Z,0
2018-01-04T03:18:21.511Z,0
2018-01-04T03:19:01.977Z,0
2018-01-04T03:19:42.498Z,0
2018-01-04T03:20:22.890Z,0
2018-01-04T03:21:03.342Z,0
2018-01-04T03:21:43.826Z,0
2018-01-04T03:22:24.369Z,0
2018-01-04T03:23:04.849Z,0
2018-01-04T03:23:45.246Z,0
2018-01-04T03:24:25.724Z,0
2018-01-04T03:25:06.145Z,0
2018-01-04T03:25:46.851Z,0
2018-01-04T03:26:27.383Z,0
2018-01-04T03:27:08.512Z,0
2018-01-04T03:27:49.095Z,0
2018-01-04T03:28:29.439Z,0
2018-01-04T03:29:10.234Z,0
2018-01-04T03:29:51.485Z,0
2018-01-04T03:30:31.968Z,0
2018-01-04T03:31:12.563Z,0
2018-01-04T03:31:53.306Z,0
2018-01-04T03:32:33.801Z,0
2018-01-04T03:33:14.124Z,0
2018-01-04T03:33:54.550Z,0
2018-01-04T03:34:35.153Z,0
2018-01-04T03:35:15.718Z,0
2018-01-04T03:35:56.141Z,0
2018-01-04T03:36:36.845Z,0
2018-01-04T03:37:17.207Z,0
2018-01-04T03:37:57.926Z,0
2018-01-04T03:38:39.280Z,0
2018-01-04T03:39:19.773Z,0
2018-01-04T03:40:00.392Z,0
2018-01-04T03:40:40.709Z,0
2018-01-04T03:41:21.706Z,0
2018-01-04T03:42:02.281Z,0
2018-01-04T03:42:43.308Z,0
2018-01-04T03:43:23.836Z,0
2018-01-04T03:44:04.725Z,0
2018-01-04T03:44:45.040Z,0
2018-01-04T03:45:26.462Z,0
2018-01-04T03:46:06.781Z,0
2018-01-04T03:46:47.339Z,0
2018-01-04T03:47:27.803Z,0
2018-01-04T03:48:08.679Z,0
2018-01-04T03:48:49.969Z,0
2018-01-04T03:49:30.252Z,0
2018-01-04T03:50:10.752Z,0
2018-01-04T03:50:51.439Z,0
2018-01-04T03:51:31.847Z,0
2018-01-04T03:52:12.296Z,0
2018-01-04T03:52:53.353Z,0
2018-01-04T03:53:33.738Z,0
2018-01-04T03:56:07.994Z,0
2018-01-04T03:56:47.926Z,0
2018-01-04T03:57:28.687Z,0
2018-01-04T03:58:09.916Z,0
2018-01-04T03:58:50.693Z,0
2018-01-04T03:59:31.136Z,0
2018-01-04T04:00:11.747Z,0
2018-01-04T04:00:52.589Z,0
2018-01-04T04:01:33.242Z,0
2018-01-04T04:02:13.826Z,0
2018-01-04T04:02:54.429Z,0
2018-01-04T04:42:17.408Z,0
2018-01-04T04:43:09.608Z,0
2018-01-04T04:44:02.076Z,0
2018-01-04T04:44:54.276Z,0
2018-01-04T04:45:46.736Z,0
2018-01-04T04:46:39.323Z,0
2018-01-04T04:47:31.924Z,0
2018-01-04T04:48:24.023Z,0
2018-01-04T04:49:16.114Z,0
2018-01-04T04:50:09.339Z,0
2018-01-04T04:51:02.021Z,0
2018-01-04T04:51:54.224Z,0
2018-01-04T04:52:48.061Z,0
2018-01-04T04:53:40.456Z,0
2018-01-04T04:54:32.717Z,0
2018-01-04T04:55:27.058Z,0
2018-01-04T04:56:10.897Z,0
2018-01-04T04:56:51.454Z,0
2018-01-04T04:57:32.848Z,0
2018-01-04T04:58:13.218Z,0
2018-01-04T04:58:54.403Z,0
2018-01-04T04:59:34.874Z,0
2018-01-04T05:00:15.350Z,0
2018-01-04T05:00:55.800Z,0
2018-01-04T05:01:36.239Z,0
2018-01-04T05:02:16.629Z,0
2018-01-04T05:02:57.143Z,0
2018-01-04T05:03:38.000Z,0
2018-01-04T05:04:18.393Z,0
2018-01-04T05:04:58.730Z,0
2018-01-04T05:05:39.189Z,0
2018-01-04T05:06:19.624Z,0
2018-01-04T05:07:00.295Z,0
2018-01-04T05:07:41.187Z,0
2018-01-04T05:08:21.534Z,0
2018-01-04T05:09:01.956Z,0
2018-01-04T05:09:42.418Z,0
2018-01-04T05:10:22.780Z,0
2018-01-04T05:11:03.164Z,0
2018-01-04T05:11:43.621Z,0
2018-01-04T05:12:24.011Z,0
2018-01-04T05:13:04.529Z,0
2018-01-04T05:13:44.884Z,0
2018-01-04T05:14:25.912Z,0
2018-01-04T05:15:06.309Z,0
2018-01-04T05:15:46.682Z,0
2018-01-04T05:16:27.172Z,0
2018-01-04T05:17:07.598Z,0
2018-01-04T05:17:48.016Z,0
2018-01-04T05:18:28.520Z,0
2018-01-04T05:19:08.806Z,0
2018-01-04T05:19:49.358Z,0
2018-01-04T05:20:29.671Z,0
2018-01-04T05:21:10.275Z,0
2018-01-04T05:21:50.705Z,0
2018-01-04T05:22:31.078Z,0
2018-01-04T05:23:11.504Z,0
2018-01-04T05:23:51.963Z,0
2018-01-04T05:26:37.632Z,0
2018-01-04T05:27:30.715Z,0
2018-01-04T05:28:22.910Z,0
2018-01-04T05:29:03.647Z,0
2018-01-04T05:29:44.218Z,0
2018-01-04T05:30:25.545Z,0
2018-01-04T05:31:05.911Z,0
2018-01-04T05:31:46.526Z,0
2018-01-04T05:32:26.925Z,0
2018-01-04T05:33:07.550Z,0
2018-01-04T05:33:47.991Z,0
2018-01-04T05:34:28.499Z,0
2018-01-04T05:35:08.991Z,0
2018-01-04T05:35:49.367Z,0
2018-01-04T05:36:29.824Z,0
2018-01-04T05:37:10.271Z,0
2018-01-04T05:37:50.798Z,0
2018-01-04T05:38:33.912Z,0
2018-01-04T05:39:14.231Z,0
2018-01-04T05:39:54.957Z,0
2018-01-04T05:40:35.407Z,0
2018-01-04T05:41:15.690Z,0
2018-01-04T05:41:56.096Z,0
2018-01-04T05:42:36.472Z,0
2018-01-04T05:43:17.136Z,0
2018-01-04T05:43:59.382Z,0
2018-01-04T05:44:40.173Z,0
2018-01-04T05:45:22.687Z,0
2018-01-04T05:49:03.762Z,0
2018-01-04T05:49:44.768Z,0
2018-01-04T05:50:25.245Z,0
2018-01-04T05:51:05.580Z,0
2018-01-04T05:51:46.060Z,0
2018-01-04T05:52:26.738Z,0
2018-01-04T05:53:07.429Z,0
2018-01-04T05:53:47.802Z,0
2018-01-04T05:54:28.016Z,0
2018-01-04T05:55:08.319Z,0
2018-01-04T05:55:48.722Z,0
2018-01-04T05:56:29.306Z,0
2018-01-04T05:57:09.769Z,0
2018-01-04T05:57:50.627Z,0
2018-01-04T05:58:32.085Z,0
2018-01-04T05:59:13.183Z,0
2018-01-04T05:59:53.967Z,0
2018-01-04T06:00:34.810Z,0
2018-01-04T06:01:15.983Z,0
2018-01-04T06:01:56.612Z,0
2018-01-04T06:02:37.210Z,0
2018-01-04T06:03:17.894Z,0
2018-01-04T06:03:58.332Z,0
2018-01-04T06:04:38.752Z,0
2018-01-04T06:05:19.694Z,0
2018-01-04T06:06:00.423Z,0
2018-01-04T06:06:41.265Z,0
2018-01-04T06:07:21.838Z,0
2018-01-04T06:08:04.214Z,0
2018-01-04T06:08:44.577Z,0
2018-01-04T06:09:24.995Z,0
2018-01-04T06:10:05.618Z,0
2018-01-04T06:10:46.127Z,0
2018-01-04T06:11:26.533Z,0
2018-01-04T06:12:07.609Z,0
2018-01-04T06:12:48.030Z,0
2018-01-04T06:13:28.426Z,0
2018-01-04T06:14:08.963Z,0
2018-01-04T06:14:50.393Z,0
2018-01-04T06:15:31.487Z,0
2018-01-04T06:17:58.986Z,0
2018-01-04T06:18:43.194Z,0
2018-01-04T06:19:23.707Z,0
2018-01-04T06:20:04.248Z,0
2018-01-04T06:20:44.651Z,0
2018-01-04T06:21:25.084Z,0
2018-01-04T06:22:05.581Z,0
2018-01-04T06:22:46.385Z,0
2018-01-04T06:23:27.213Z,0
2018-01-04T06:24:08.475Z,0
2018-01-04T06:24:49.478Z,0
2018-01-04T06:25:30.108Z,0
2018-01-04T06:26:10.509Z,0
2018-01-04T06:26:51.470Z,0
2018-01-04T06:27:32.270Z,0
2018-01-04T06:28:13.710Z,0
2018-01-04T06:28:53.968Z,0
2018-01-04T06:29:34.554Z,0
2018-01-04T06:30:15.192Z,0
2018-01-04T06:30:55.677Z,0
2018-01-04T06:31:36.066Z,0
2018-01-04T06:32:17.138Z,0
2018-01-04T06:32:57.704Z,0
2018-01-04T06:33:38.699Z,0
2018-01-04T06:34:19.150Z,0
2018-01-04T06:34:59.661Z,0
2018-01-04T06:35:40.052Z,0
2018-01-04T06:36:21.739Z,0
2018-01-04T06:37:01.705Z,0
2018-01-04T06:37:42.230Z,0
2018-01-04T06:38:22.846Z,0
2018-01-04T06:39:03.249Z,0
2018-01-04T06:39:44.083Z,0
2018-01-04T06:40:24.837Z,0
2018-01-04T06:41:05.524Z,0
2018-01-04T06:41:45.657Z,0
2018-01-04T06:42:26.031Z,0
2018-01-04T06:43:06.628Z,0
2018-01-04T06:43:47.164Z,0
2018-01-04T06:44:29.065Z,0
2018-01-04T06:45:09.171Z,0
2018-01-04T06:45:50.000Z,0
2018-01-04T06:46:30.554Z,0
2018-01-04T06:47:11.019Z,0
2018-01-04T06:47:52.072Z,0
2018-01-04T06:48:32.259Z,0
2018-01-04T06:49:13.004Z,0
2018-01-04T06:49:54.348Z,0
2018-01-04T06:50:35.886Z,0
2018-01-04T06:51:16.292Z,0
2018-01-04T06:51:56.658Z,0
2018-01-04T06:52:37.494Z,0
2018-01-04T06:53:19.873Z,0
2018-01-04T06:54:01.252Z,0
2018-01-04T06:54:41.044Z,0
2018-01-04T06:55:21.569Z,0
2018-01-04T06:56:05.135Z,0
2018-01-04T06:56:44.955Z,0
2018-01-04T06:57:25.247Z,0
2018-01-04T06:58:06.148Z,0
2018-01-04T06:58:46.546Z,0
2018-01-04T06:59:26.871Z,0
2018-01-04T07:00:07.559Z,0
2018-01-04T07:00:48.117Z,0
2018-01-04T07:01:28.648Z,0
2018-01-04T07:02:09.051Z,0
2018-01-04T07:02:49.445Z,0
2018-01-04T07:03:30.326Z,0
2018-01-04T07:04:10.718Z,0
2018-01-04T07:04:51.185Z,0
2018-01-04T07:05:31.517Z,0
2018-01-04T07:06:12.341Z,0
2018-01-04T07:06:52.314Z,0
2018-01-04T07:07:32.686Z,0
2018-01-04T07:08:13.127Z,0
2018-01-04T07:08:53.491Z,0
2018-01-04T07:09:34.686Z,0
2018-01-04T07:10:15.866Z,0
2018-01-04T07:10:56.522Z,0
2018-01-04T07:11:37.551Z,0
2018-01-04T07:12:18.024Z,0
2018-01-04T07:12:58.545Z,0
2018-01-04T07:13:38.829Z,0
2018-01-04T07:14:19.238Z,0
2018-01-04T07:14:59.654Z,0
2018-01-04T07:15:40.040Z,0
2018-01-04T07:16:20.519Z,0
2018-01-04T07:17:01.135Z,0
2018-01-04T07:17:41.445Z,0
2018-01-04T07:18:21.860Z,4
2018-01-04T07:19:02.308Z,4
2018-01-04T07:19:42.720Z,4
2018-01-04T07:20:25.460Z,4
2018-01-04T07:21:05.875Z,4
2018-01-04T07:21:46.246Z,4
2018-01-04T07:22:26.632Z,4
2018-01-04T07:23:07.060Z,0
2018-01-04T07:23:47.526Z,0
2018-01-04T07:24:27.957Z,0
2018-01-04T07:25:08.372Z,0
2018-01-04T07:25:48.929Z,4
2018-01-04T07:26:29.207Z,4
2018-01-04T07:27:09.722Z,4
2018-01-04T07:27:50.431Z,4
2018-01-04T07:28:30.730Z,4
2018-01-04T07:29:11.193Z,4
2018-01-04T07:29:51.729Z,4
2018-01-04T07:30:32.138Z,8
2018-01-04T07:31:12.651Z,8
2018-01-04T07:31:54.804Z,8
2018-01-04T07:32:34.915Z,4
2018-01-04T07:33:15.384Z,4
2018-01-04T07:33:55.953Z,4
2018-01-04T07:34:36.364Z,8
2018-01-04T07:35:18.503Z,8
2018-01-04T07:35:58.806Z,8
2018-01-04T07:36:40.270Z,8
2018-01-04T07:37:20.385Z,8
2018-01-04T07:38:01.783Z,8
2018-01-04T07:38:43.499Z,8
2018-01-04T07:39:23.172Z,8
2018-01-04T07:40:04.055Z,8
2018-01-04T07:40:44.562Z,12
2018-01-04T07:41:25.764Z,12
2018-01-04T07:42:07.518Z,12
2018-01-04T07:42:47.367Z,8
2018-01-04T07:43:27.943Z,8
2018-01-04T07:44:09.762Z,8
2018-01-04T07:44:49.783Z,8
2018-01-04T07:45:30.770Z,8
2018-01-04T07:46:11.789Z,8
2018-01-04T07:46:52.280Z,8
2018-01-04T07:47:33.256Z,8
2018-01-04T07:48:13.407Z,8
2018-01-04T07:48:55.390Z,12
2018-01-04T07:49:35.474Z,12
2018-01-04T07:50:16.692Z,12
2018-01-04T07:50:57.064Z,12
2018-01-04T07:51:37.656Z,12
2018-01-04T07:52:18.795Z,12
2018-01-04T07:52:59.280Z,8
2018-01-04T07:53:40.029Z,12
2018-01-04T07:54:21.084Z,16
2018-01-04T07:55:01.502Z,12
2018-01-04T07:55:42.125Z,12
2018-01-04T07:56:23.101Z,20
2018-01-04T07:57:03.542Z,20
2018-01-04T07:57:43.717Z,16
2018-01-04T07:58:24.402Z,16
2018-01-04T07:59:04.840Z,16
2018-01-04T07:59:45.317Z,16
2018-01-04T08:00:25.720Z,16
2018-01-04T08:01:06.165Z,20
2018-01-04T08:01:46.597Z,20
2018-01-04T08:02:27.700Z,24
2018-01-04T08:03:08.095Z,28
2018-01-04T08:03:48.496Z,28
2018-01-04T08:04:28.862Z,20
2018-01-04T08:05:09.334Z,20
2018-01-04T08:05:49.739Z,20
2018-01-04T08:06:31.276Z,24
2018-01-04T08:07:12.273Z,20
2018-01-04T08:07:52.542Z,24
2018-01-04T08:08:33.354Z,24
2018-01-04T08:09:13.736Z,24
2018-01-04T08:09:55.444Z,28
2018-01-04T08:10:35.903Z,32
2018-01-04T08:11:16.541Z,28
2018-01-04T08:11:58.272Z,28
2018-01-04T08:12:38.493Z,28
2018-01-04T08:13:20.268Z,32
2018-01-04T08:14:01.271Z,32
2018-01-04T08:14:41.615Z,28
2018-01-04T08:15:22.267Z,32
2018-01-04T08:16:03.054Z,28
2018-01-04T08:16:43.808Z,28
2018-01-04T08:17:24.246Z,28
2018-01-04T08:18:05.011Z,24
2018-01-04T08:18:45.821Z,28
2018-01-04T08:19:28.269Z,32
2018-01-04T08:20:08.181Z,36
2018-01-04T08:20:49.788Z,36
2018-01-04T08:21:30.171Z,44
2018-01-04T08:22:11.900Z,44
2018-01-04T08:22:52.443Z,52
2018-01-04T08:23:33.189Z,56
2018-01-04T08:24:13.489Z,52
2018-01-04T08:24:53.916Z,52
2018-01-04T08:25:34.459Z,56
2018-01-04T08:26:15.012Z,56
2018-01-04T08:26:55.707Z,56
2018-01-04T08:27:37.279Z,60
2018-01-04T08:28:17.154Z,56
2018-01-04T08:28:57.588Z,60
2018-01-04T08:29:38.649Z,56
2018-01-04T08:30:19.121Z,56
2018-01-04T08:30:59.699Z,56
2018-01-04T08:31:40.327Z,64
2018-01-04T08:32:20.848Z,60
2018-01-04T08:33:01.599Z,60
2018-01-04T08:33:42.154Z,64
2018-01-04T08:34:22.944Z,60
2018-01-04T08:35:03.628Z,56
2018-01-04T08:35:45.101Z,56
2018-01-04T08:36:25.855Z,64
2018-01-04T08:37:06.308Z,64
2018-01-04T08:37:47.787Z,60
2018-01-04T08:38:27.867Z,60
2018-01-04T08:39:08.297Z,64
2018-01-04T08:39:49.172Z,68
2018-01-04T08:40:30.155Z,72
2018-01-04T08:41:10.725Z,72
2018-01-04T08:41:51.297Z,76
2018-01-04T08:42:32.232Z,72
2018-01-04T08:43:12.769Z,68
2018-01-04T08:43:53.610Z,64
2018-01-04T08:44:34.653Z,60
2018-01-04T08:45:15.484Z,60
2018-01-04T08:45:55.930Z,60
2018-01-04T08:46:37.286Z,56
2018-01-04T08:47:18.076Z,60
2018-01-04T08:47:59.139Z,60
2018-01-04T08:48:40.794Z,60
2018-01-04T08:49:26.800Z,60
2018-01-04T08:50:08.939Z,60
2018-01-04T08:50:49.479Z,60
2018-01-04T08:51:31.282Z,60
2018-01-04T08:52:13.049Z,64
2018-01-04T08:52:58.316Z,64
2018-01-04T08:53:39.882Z,68
2018-01-04T08:54:20.842Z,68
2018-01-04T08:55:01.813Z,64
2018-01-04T08:55:42.267Z,68
2018-01-04T08:56:24.182Z,68
2018-01-04T08:57:05.164Z,68
2018-01-04T08:57:50.296Z,64
2018-01-04T08:58:31.285Z,68
2018-01-04T08:59:11.539Z,68
2018-01-04T08:59:53.113Z,72
2018-01-04T09:00:35.424Z,72
2018-01-04T09:01:17.206Z,72
2018-01-04T09:01:59.189Z,72
2018-01-04T09:02:40.552Z,72
2018-01-04T09:03:21.106Z,72
2018-01-04T09:04:01.697Z,80
2018-01-04T09:04:43.965Z,88
2018-01-04T09:05:25.762Z,88
2018-01-04T09:06:08.020Z,92
2018-01-04T09:06:50.170Z,88
2018-01-04T09:07:30.946Z,92
2018-01-04T09:08:11.892Z,88
2018-01-04T09:08:52.982Z,92
2018-01-04T09:09:33.921Z,88
2018-01-04T09:10:14.518Z,84
2018-01-04T09:10:55.382Z,96
2018-01-04T09:11:36.472Z,96
2018-01-04T09:12:17.204Z,104
2018-01-04T09:12:58.793Z,104
2018-01-04T09:13:39.767Z,104
2018-01-04T09:14:20.372Z,104
2018-01-04T09:15:01.301Z,108
2018-01-04T09:15:42.850Z,116
2018-01-04T09:16:23.580Z,112
2018-01-04T09:17:04.584Z,112
2018-01-04T09:17:45.518Z,120
2018-01-04T09:18:26.947Z,116
2018-01-04T09:19:10.078Z,120
2018-01-04T09:19:54.305Z,120
2018-01-04T09:20:36.138Z,112
2018-01-04T09:21:18.420Z,116
2018-01-04T09:21:59.752Z,124
2018-01-04T09:22:42.388Z,136
2018-01-04T09:23:23.752Z,136
2018-01-04T09:24:05.024Z,144
2018-01-04T09:24:46.478Z,144
2018-01-04T09:25:28.307Z,148
2018-01-04T09:26:12.370Z,140
2018-01-04T09:26:53.783Z,140
2018-01-04T09:27:35.028Z,140
2018-01-04T09:28:16.477Z,136
2018-01-04T09:28:57.120Z,128
2018-01-04T09:29:39.000Z,124
2018-01-04T09:30:19.473Z,124
2018-01-04T09:31:00.017Z,124
2018-01-04T09:31:41.981Z,124
2018-01-04T09:32:22.345Z,124
2018-01-04T09:33:04.213Z,128
2018-01-04T09:33:45.127Z,124
2018-01-04T09:34:26.121Z,128
2018-01-04T09:35:07.447Z,128
2018-01-04T09:35:48.954Z,132
2018-01-04T09:36:29.639Z,136
2018-01-04T09:37:10.511Z,136
2018-01-04T09:37:51.499Z,144
2018-01-04T09:38:32.985Z,152
2018-01-04T09:39:14.737Z,152
2018-01-04T09:39:55.998Z,156
2018-01-04T09:40:36.983Z,156
2018-01-04T09:41:18.787Z,152
2018-01-04T09:41:59.022Z,148
2018-01-04T09:42:39.574Z,148
2018-01-04T09:43:20.178Z,148
2018-01-04T09:44:01.081Z,156
2018-01-04T09:44:42.498Z,156
2018-01-04T09:45:26.686Z,156
2018-01-04T09:46:07.794Z,156
2018-01-04T09:46:47.996Z,156
2018-01-04T09:47:28.780Z,152
2018-01-04T09:48:09.408Z,152
2018-01-04T09:48:52.428Z,152
2018-01-04T09:49:33.129Z,148
2018-01-04T09:50:13.471Z,148
2018-01-04T09:50:54.648Z,152
2018-01-04T09:51:35.437Z,160
2018-01-04T09:52:16.146Z,168
2018-01-04T09:52:56.879Z,176
2018-01-04T09:53:37.249Z,180
2018-01-04T09:54:17.957Z,184
2018-01-04T09:54:59.038Z,184
2018-01-04T09:55:40.297Z,184
2018-01-04T09:56:20.988Z,184
2018-01-04T09:57:01.438Z,184
2018-01-04T09:57:41.797Z,184
2018-01-04T09:58:23.303Z,184
2018-01-04T09:59:03.483Z,188
2018-01-04T09:59:45.038Z,200
2018-01-04T10:00:24.877Z,216
2018-01-04T10:01:05.610Z,232
2018-01-04T10:01:46.099Z,252
2018-01-04T10:02:27.404Z,272
2018-01-04T10:03:08.289Z,292
2018-01-04T10:03:48.809Z,312
2018-01-04T10:41:54.555Z,368
2018-01-04T10:43:55.686Z,364
2018-01-04T10:44:36.369Z,356
2018-01-04T10:45:16.785Z,352
2018-01-04T10:45:57.155Z,348
2018-01-04T10:46:37.654Z,344
2018-01-04T10:47:18.066Z,344
2018-01-04T10:47:58.514Z,348
2018-01-04T10:48:39.062Z,340
2018-01-04T10:49:19.500Z,328
2018-01-04T10:49:59.768Z,336
2018-01-04T10:50:40.210Z,352
2018-01-04T10:51:20.638Z,364
2018-01-04T10:52:00.999Z,368
2018-01-04T10:52:41.468Z,364
2018-01-04T10:53:21.973Z,368
2018-01-04T10:54:02.264Z,368
2018-01-04T10:54:42.825Z,364
2018-01-04T10:55:23.192Z,360
2018-01-04T10:56:03.634Z,352
2018-01-04T10:56:43.956Z,336
2018-01-04T10:57:24.442Z,332
2018-01-04T10:58:04.963Z,320
2018-01-04T10:58:45.250Z,300
2018-01-04T11:00:45.057Z,316
2018-01-04T11:01:25.439Z,332
2018-01-04T11:02:05.865Z,344
2018-01-04T11:02:46.318Z,352
2018-01-04T11:03:26.723Z,352
2018-01-04T11:04:07.360Z,348
2018-01-04T11:04:48.512Z,348
2018-01-04T11:05:28.976Z,344
2018-01-04T11:06:09.589Z,344
2018-01-04T11:06:49.918Z,340
2018-01-04T11:07:30.562Z,328
2018-01-04T11:08:11.091Z,316
2018-01-04T11:08:51.648Z,304
2018-01-04T11:09:32.912Z,304
2018-01-04T11:12:32.359Z,312
2018-01-04T11:14:33.498Z,320
2018-01-04T11:15:13.933Z,320
2018-01-04T11:15:54.558Z,320
2018-01-04T11:16:35.301Z,324
2018-01-04T11:17:15.605Z,320
2018-01-04T11:17:56.060Z,328
2018-01-04T11:18:36.433Z,336
2018-01-04T11:19:16.794Z,344
2018-01-04T11:19:57.305Z,356
2018-01-04T11:20:37.809Z,368
2018-01-04T11:21:18.274Z,372
2018-01-04T11:21:58.615Z,380
2018-01-04T11:22:39.038Z,384
2018-01-04T11:23:19.601Z,396
2018-01-04T11:24:00.397Z,396
2018-01-04T11:24:40.815Z,400
2018-01-04T11:25:21.296Z,400
2018-01-04T11:26:01.718Z,392
2018-01-04T11:26:42.162Z,380
2018-01-04T11:27:23.437Z,380
2018-01-04T11:28:03.987Z,380
2018-01-04T11:28:44.449Z,376
2018-01-04T11:29:24.823Z,372
2018-01-04T11:30:05.378Z,372
2018-01-04T11:30:45.780Z,352
2018-01-04T11:31:26.120Z,336
2018-01-04T11:32:06.502Z,328
2018-01-04T11:32:47.009Z,332
2018-01-04T11:33:27.694Z,352
2018-01-04T11:34:08.040Z,368
2018-01-04T11:34:48.527Z,380
2018-01-04T11:35:28.972Z,388
2018-01-04T11:36:09.457Z,376
2018-01-04T11:36:50.089Z,380
2018-01-04T11:37:30.482Z,392
2018-01-04T11:38:10.962Z,400
2018-01-04T11:38:51.496Z,408
2018-01-04T11:39:31.947Z,408
2018-01-04T11:40:12.333Z,400
2018-01-04T11:40:53.751Z,380
2018-01-04T11:41:34.092Z,368
2018-01-04T11:42:15.262Z,356
2018-01-04T11:42:56.344Z,352
2018-01-04T11:43:36.447Z,336
2018-01-04T11:44:17.746Z,316
2018-01-04T11:44:57.685Z,304